Time,TemperatureF,DewpointF,PressureIn,WindDirection,WindDirectionDegrees,WindSpeedMPH,WindSpeedGustMPH,Humidity,HourlyPrecipIn,Conditions,Clouds,dailyrainin,SoftwareType,DateUTC
2013-06-26 00:04:00,81.6,76.0,30.14,SE,137,2.0,10.0,84,0.00,,,0.00,weatherlink.com 1.10,2013-06-26 04:04:00,
2013-06-26 00:19:00,81.4,76.0,30.14,ESE,108,3.0,8.0,83,0.00,,,0.00,weatherlink.com 1.10,2013-06-26 04:19:00,
2013-06-26 00:34:00,81.4,76.0,30.13,ENE,77,3.0,5.0,83,0.00,,,0.00,weatherlink.com 1.10,2013-06-26 04:34:00,
2013-06-26 00:49:00,81.5,76.0,30.13,ENE,74,5.0,8.0,84,0.00,,,0.00,weatherlink.com 1.10,2013-06-26 04:49:00,
2013-06-26 01:04:00,81.5,76.0,30.12,SE,129,6.0,9.0,83,0.00,,,0.00,weatherlink.com 1.10,2013-06-26 05:04:00,
2013-06-26 01:19:00,81.5,76.0,30.12,ESE,122,6.0,8.0,83,0.00,,,0.00,weatherlink.com 1.10,2013-06-26 05:19:00,
2013-06-26 01:34:00,81.5,76.0,30.11,ENE,77,6.0,11.0,83,0.00,,,0.00,weatherlink.com 1.10,2013-06-26 05:34:00,
2013-06-26 01:49:00,81.5,76.0,30.10,East,81,3.0,8.0,83,0.00,,,0.00,weatherlink.com 1.10,2013-06-26 05:49:00,
2013-06-26 02:04:00,81.3,76.0,30.10,ESE,109,8.0,9.0,84,0.00,,,0.00,weatherlink.com 1.10,2013-06-26 06:04:00,
2013-06-26 02:19:00,81.4,76.0,30.09,SE,132,3.0,7.0,84,0.00,,,0.00,weatherlink.com 1.10,2013-06-26 06:19:00,
2013-06-26 02:34:00,81.5,76.0,30.09,SE,125,6.0,10.0,84,0.00,,,0.00,weatherlink.com 1.10,2013-06-26 06:34:00,
2013-06-26 02:49:00,81.2,76.0,30.09,ESE,105,9.0,10.0,85,0.00,,,0.00,weatherlink.com 1.10,2013-06-26 06:49:00,
2013-06-26 03:05:00,81.1,76.0,30.08,ESE,108,5.0,9.0,84,0.00,,,0.00,weatherlink.com 1.10,2013-06-26 07:05:00,
2013-06-26 03:20:00,81.1,76.0,30.07,SE,137,4.0,7.0,84,0.00,,,0.00,weatherlink.com 1.10,2013-06-26 07:20:00,
2013-06-26 03:35:00,81.2,76.0,30.07,SE,136,3.0,10.0,83,0.00,,,0.00,weatherlink.com 1.10,2013-06-26 07:35:00,
2013-06-26 03:50:00,81.2,76.0,30.07,SE,132,5.0,8.0,84,0.00,,,0.00,weatherlink.com 1.10,2013-06-26 07:50:00,
2013-06-26 04:05:00,81.0,76.0,30.07,West,266,2.0,8.0,85,0.00,,,0.00,weatherlink.com 1.10,2013-06-26 08:05:00,
2013-06-26 04:20:00,79.6,77.0,30.07,SE,128,4.0,6.0,90,0.02,,,0.02,weatherlink.com 1.10,2013-06-26 08:20:00,
2013-06-26 04:35:00,78.9,76.0,30.07,East,101,4.0,10.0,91,0.02,,,0.02,weatherlink.com 1.10,2013-06-26 08:35:00,
2013-06-26 04:50:00,79.4,76.0,30.07,SE,146,4.0,11.0,89,0.02,,,0.02,weatherlink.com 1.10,2013-06-26 08:50:00,
2013-06-26 05:05:00,79.7,76.0,30.07,East,97,5.0,9.0,88,0.02,,,0.02,weatherlink.com 1.10,2013-06-26 09:05:00,
2013-06-26 05:20:00,80.1,76.0,30.08,ESE,118,4.0,12.0,87,0.00,,,0.02,weatherlink.com 1.10,2013-06-26 09:20:00,
2013-06-26 05:35:00,80.3,76.0,30.08,East,99,6.0,10.0,86,0.00,,,0.02,weatherlink.com 1.10,2013-06-26 09:35:00,
2013-06-26 05:50:00,80.5,76.0,30.09,SSE,153,5.0,11.0,85,0.00,,,0.02,weatherlink.com 1.10,2013-06-26 09:50:00,
2013-06-26 06:05:00,80.5,76.0,30.09,SSE,167,6.0,8.0,86,0.00,,,0.02,weatherlink.com 1.10,2013-06-26 10:05:00,
2013-06-26 06:20:00,80.7,76.0,30.10,SE,146,2.0,7.0,86,0.02,,,0.04,weatherlink.com 1.10,2013-06-26 10:20:00,
2013-06-26 06:35:00,78.2,74.0,30.10,SE,125,8.0,16.0,88,0.17,,,0.19,weatherlink.com 1.10,2013-06-26 10:35:00,
2013-06-26 06:50:00,77.7,76.0,30.10,ESE,120,0.0,3.0,94,0.18,,,0.20,weatherlink.com 1.10,2013-06-26 10:50:00,
2013-06-26 07:05:00,78.4,77.0,30.10,SSE,150,4.0,5.0,95,0.18,,,0.20,weatherlink.com 1.10,2013-06-26 11:05:00,
2013-06-26 07:20:00,79.7,78.0,30.11,SE,146,4.0,6.0,94,0.16,,,0.20,weatherlink.com 1.10,2013-06-26 11:20:00,
2013-06-26 07:35:00,80.6,79.0,30.10,SE,142,2.0,6.0,93,0.01,,,0.20,weatherlink.com 1.10,2013-06-26 11:35:00,
2013-06-26 07:50:00,81.3,77.0,30.10,ESE,110,8.0,9.0,85,0.00,,,0.20,weatherlink.com 1.10,2013-06-26 11:50:00,
2013-06-26 08:05:00,82.8,76.0,30.10,SE,141,4.0,7.0,81,0.00,,,0.20,weatherlink.com 1.10,2013-06-26 12:05:00,
2013-06-26 08:20:00,82.9,77.0,30.11,ESE,103,5.0,10.0,81,0.00,,,0.20,weatherlink.com 1.10,2013-06-26 12:20:00,
2013-06-26 08:35:00,83.3,76.0,30.11,SE,146,6.0,9.0,79,0.00,,,0.20,weatherlink.com 1.10,2013-06-26 12:35:00,
2013-06-26 08:50:00,84.0,76.0,30.12,ESE,114,6.0,9.0,77,0.00,,,0.20,weatherlink.com 1.10,2013-06-26 12:50:00,
2013-06-26 09:05:00,83.9,76.0,30.12,SE,146,8.0,10.0,78,0.00,,,0.20,weatherlink.com 1.10,2013-06-26 13:05:00,
2013-06-26 09:21:00,83.2,76.0,30.12,ESE,104,5.0,9.0,79,0.00,,,0.20,weatherlink.com 1.10,2013-06-26 13:21:00,
2013-06-26 09:35:00,84.4,76.0,30.12,SE,141,6.0,10.0,76,0.00,,,0.20,weatherlink.com 1.10,2013-06-26 13:35:00,
2013-06-26 09:50:00,84.7,76.0,30.11,ESE,106,12.0,12.0,74,0.00,,,0.20,weatherlink.com 1.10,2013-06-26 13:50:00,
2013-06-26 10:05:00,84.7,76.0,30.11,SE,134,5.0,12.0,74,0.00,,,0.20,weatherlink.com 1.10,2013-06-26 14:05:00,
2013-06-26 10:20:00,84.4,76.0,30.12,ESE,110,6.0,13.0,75,0.00,,,0.20,weatherlink.com 1.10,2013-06-26 14:20:00,
2013-06-26 10:35:00,84.7,77.0,30.12,SE,132,4.0,12.0,77,0.00,,,0.20,weatherlink.com 1.10,2013-06-26 14:35:00,
2013-06-26 10:50:00,85.1,76.0,30.12,ESE,108,13.0,13.0,74,0.00,,,0.20,weatherlink.com 1.10,2013-06-26 14:50:00,
2013-06-26 11:05:00,84.9,75.0,30.12,SE,138,6.0,12.0,73,0.00,,,0.20,weatherlink.com 1.10,2013-06-26 15:05:00,
2013-06-26 11:20:00,85.2,75.0,30.12,SSE,148,4.0,12.0,72,0.00,,,0.20,weatherlink.com 1.10,2013-06-26 15:20:00,
2013-06-26 11:35:00,85.2,76.0,30.13,SE,126,7.0,13.0,73,0.00,,,0.20,weatherlink.com 1.10,2013-06-26 15:35:00,
2013-06-26 11:50:00,85.1,76.0,30.13,SSE,148,6.0,15.0,74,0.00,,,0.20,weatherlink.com 1.10,2013-06-26 15:50:00,
2013-06-26 12:05:00,85.2,75.0,30.13,East,90,11.0,13.0,72,0.00,,,0.20,weatherlink.com 1.10,2013-06-26 16:05:00,
2013-06-26 12:20:00,85.4,75.0,30.13,SSE,148,8.0,11.0,71,0.00,,,0.20,weatherlink.com 1.10,2013-06-26 16:20:00,
2013-06-26 12:35:00,85.7,76.0,30.13,ESE,113,8.0,14.0,72,0.00,,,0.20,weatherlink.com 1.10,2013-06-26 16:35:00,
2013-06-26 12:50:00,85.2,76.0,30.13,East,85,6.0,14.0,74,0.00,,,0.20,weatherlink.com 1.10,2013-06-26 16:50:00,
2013-06-26 13:05:00,85.6,76.0,30.14,ESE,113,6.0,15.0,73,0.00,,,0.20,weatherlink.com 1.10,2013-06-26 17:05:00,
2013-06-26 13:20:00,85.5,76.0,30.13,SSE,148,7.0,12.0,74,0.00,,,0.20,weatherlink.com 1.10,2013-06-26 17:20:00,
2013-06-26 13:35:00,85.7,77.0,30.13,SE,142,9.0,12.0,74,0.00,,,0.20,weatherlink.com 1.10,2013-06-26 17:35:00,
2013-06-26 13:50:00,85.7,77.0,30.13,East,89,4.0,13.0,74,0.00,,,0.20,weatherlink.com 1.10,2013-06-26 17:50:00,
2013-06-26 14:05:00,85.4,77.0,30.12,East,99,4.0,13.0,77,0.00,,,0.20,weatherlink.com 1.10,2013-06-26 18:05:00,
2013-06-26 14:20:00,85.4,77.0,30.11,ESE,122,6.0,19.0,76,0.00,,,0.20,weatherlink.com 1.10,2013-06-26 18:20:00,
2013-06-26 14:36:00,85.2,75.0,30.11,ESE,105,9.0,17.0,72,0.00,,,0.20,weatherlink.com 1.10,2013-06-26 18:36:00,
2013-06-26 14:51:00,85.6,76.0,30.11,ESE,113,6.0,13.0,72,0.00,,,0.20,weatherlink.com 1.10,2013-06-26 18:51:00,
2013-06-26 15:06:00,84.5,75.0,30.11,ESE,113,10.0,13.0,72,0.00,,,0.20,weatherlink.com 1.10,2013-06-26 19:06:00,
2013-06-26 15:21:00,83.8,72.0,30.11,East,96,6.0,10.0,68,0.00,,,0.20,weatherlink.com 1.10,2013-06-26 19:21:00,
2013-06-26 15:36:00,83.7,75.0,30.11,ESE,109,9.0,10.0,74,0.00,,,0.20,weatherlink.com 1.10,2013-06-26 19:36:00,
2013-06-26 15:52:00,83.5,76.0,30.11,ENE,75,7.0,11.0,77,0.00,,,0.20,weatherlink.com 1.10,2013-06-26 19:52:00,
2013-06-26 16:06:00,83.3,75.0,30.11,ESE,110,7.0,9.0,76,0.00,,,0.20,weatherlink.com 1.10,2013-06-26 20:06:00,
2013-06-26 16:21:00,83.1,76.0,30.11,ENE,74,6.0,10.0,80,0.00,,,0.20,weatherlink.com 1.10,2013-06-26 20:21:00,
2013-06-26 16:36:00,83.0,76.0,30.10,ESE,107,8.0,10.0,79,0.00,,,0.20,weatherlink.com 1.10,2013-06-26 20:36:00,
2013-06-26 16:51:00,82.8,76.0,30.10,ENE,77,6.0,12.0,79,0.00,,,0.20,weatherlink.com 1.10,2013-06-26 20:51:00,
2013-06-26 17:06:00,82.8,76.0,30.10,ESE,116,5.0,10.0,80,0.00,,,0.20,weatherlink.com 1.10,2013-06-26 21:06:00,
2013-06-26 17:21:00,82.9,76.0,30.11,ESE,122,3.0,10.0,80,0.00,,,0.20,weatherlink.com 1.10,2013-06-26 21:21:00,
2013-06-26 17:36:00,82.9,76.0,30.10,East,93,3.0,9.0,80,0.00,,,0.20,weatherlink.com 1.10,2013-06-26 21:36:00,
2013-06-26 17:51:00,82.9,76.0,30.09,ENE,72,7.0,9.0,80,0.00,,,0.20,weatherlink.com 1.10,2013-06-26 21:51:00,
2013-06-26 18:06:00,82.8,76.0,30.08,SE,125,8.0,11.0,80,0.00,,,0.20,weatherlink.com 1.10,2013-06-26 22:06:00,
2013-06-26 18:21:00,82.6,76.0,30.08,ESE,110,6.0,10.0,81,0.00,,,0.20,weatherlink.com 1.10,2013-06-26 22:21:00,
2013-06-26 18:36:00,82.5,76.0,30.09,ESE,110,5.0,9.0,80,0.00,,,0.20,weatherlink.com 1.10,2013-06-26 22:36:00,
2013-06-26 18:51:00,82.5,75.0,30.08,SSE,153,3.0,8.0,79,0.00,,,0.20,weatherlink.com 1.10,2013-06-26 22:51:00,
2013-06-26 19:06:00,82.3,75.0,30.08,ESE,106,5.0,9.0,79,0.00,,,0.20,weatherlink.com 1.10,2013-06-26 23:06:00,
2013-06-26 19:21:00,82.2,75.0,30.08,SE,142,3.0,8.0,79,0.00,,,0.20,weatherlink.com 1.10,2013-06-26 23:21:00,
2013-06-26 19:36:00,82.1,75.0,30.08,SE,142,4.0,9.0,78,0.00,,,0.20,weatherlink.com 1.10,2013-06-26 23:36:00,
2013-06-26 19:51:00,82.0,74.0,30.08,SE,142,3.0,7.0,77,0.00,,,0.20,weatherlink.com 1.10,2013-06-26 23:51:00,
2013-06-26 20:06:00,82.0,74.0,30.08,SE,146,3.0,8.0,76,0.00,,,0.20,weatherlink.com 1.10,2013-06-27 00:06:00,
2013-06-26 20:21:00,82.0,75.0,30.09,SE,146,6.0,8.0,79,0.00,,,0.20,weatherlink.com 1.10,2013-06-27 00:21:00,
2013-06-26 20:36:00,81.7,75.0,30.09,SE,125,4.0,8.0,81,0.00,,,0.20,weatherlink.com 1.10,2013-06-27 00:36:00,
2013-06-26 20:51:00,81.7,75.0,30.10,SSE,155,7.0,9.0,81,0.00,,,0.20,weatherlink.com 1.10,2013-06-27 00:51:00,
2013-06-26 21:06:00,81.6,75.0,30.10,SSE,148,6.0,10.0,79,0.00,,,0.20,weatherlink.com 1.10,2013-06-27 01:06:00,
2013-06-26 21:21:00,81.7,74.0,30.11,SE,136,6.0,8.0,77,0.00,,,0.20,weatherlink.com 1.10,2013-06-27 01:21:00,
2013-06-26 21:36:00,81.9,75.0,30.11,SE,146,4.0,9.0,79,0.00,,,0.20,weatherlink.com 1.10,2013-06-27 01:36:00,
2013-06-26 21:51:00,81.8,75.0,30.10,ESE,103,5.0,7.0,79,0.00,,,0.20,weatherlink.com 1.10,2013-06-27 01:51:00,
2013-06-26 22:06:00,81.8,75.0,30.11,ESE,113,4.0,8.0,80,0.00,,,0.20,weatherlink.com 1.10,2013-06-27 02:06:00,
2013-06-26 22:21:00,81.9,76.0,30.11,ESE,120,3.0,8.0,81,0.00,,,0.20,weatherlink.com 1.10,2013-06-27 02:21:00,
2013-06-26 22:36:00,81.7,76.0,30.11,ESE,103,3.0,8.0,82,0.00,,,0.20,weatherlink.com 1.10,2013-06-27 02:36:00,
2013-06-26 22:51:00,81.6,76.0,30.11,SSE,153,3.0,10.0,83,0.00,,,0.20,weatherlink.com 1.10,2013-06-27 02:51:00,
2013-06-26 23:06:00,81.4,76.0,30.10,ESE,116,9.0,10.0,83,0.00,,,0.20,weatherlink.com 1.10,2013-06-27 03:06:00,
2013-06-26 23:21:00,81.3,76.0,30.10,SE,128,2.0,5.0,83,0.00,,,0.20,weatherlink.com 1.10,2013-06-27 03:21:00,
2013-06-26 23:36:00,81.4,76.0,30.11,South,191,5.0,9.0,83,0.00,,,0.20,weatherlink.com 1.10,2013-06-27 03:36:00,
2013-06-26 23:51:00,81.4,75.0,30.10,ESE,113,6.0,8.0,82,0.00,,,0.20,weatherlink.com 1.10,2013-06-27 03:51:00,